GLO1014 SBSP-SBRJ
Flight info
| Callsign | GLO1014 |
|---|---|
| Flight time | 0h 53m |
| Altitude | 27000 |
| Route | NIBRU UZ171 KEVUN |
| Aircraft | B738/M-SDE2E3FGHIRWXY/LB1 |
Departure
| Time | 2026-05-07 14:14 |
|---|---|
| Airport | Congonhas–Deputado Freitas Nobre Airport (SBSP) |
Arrival
| Time | 2026-05-07 15:07 |
|---|---|
| Airport | Santos Dumont Airport (SBRJ) |
| Time | Latitude | Longitude | Altitude | Speed | Heading |
|---|---|---|---|---|---|
| 2026-05-07 13:54 | -23.62538 | -46.65943 | 2599 ft | 0 kts | 237° |
| 2026-05-07 14:03 | -23.62529 | -46.65927 | 2627 ft | 3 kts | 227° |
| 2026-05-07 14:03 | -23.62513 | -46.65916 | 2590 ft | 3 kts | 188° |
| 2026-05-07 14:04 | -23.62493 | -46.65919 | 2600 ft | 3 kts | 149° |
| 2026-05-07 14:04 | -23.62491 | -46.65920 | 2600 ft | 0 kts | 145° |
| 2026-05-07 14:06 | -23.62503 | -46.65906 | 2600 ft | 6 kts | 132° |
| 2026-05-07 14:07 | -23.62548 | -46.65851 | 2600 ft | 13 kts | 134° |
| 2026-05-07 14:07 | -23.62638 | -46.65773 | 2601 ft | 19 kts | 147° |
| 2026-05-07 14:07 | -23.62749 | -46.65693 | 2602 ft | 19 kts | 147° |
| 2026-05-07 14:07 | -23.62860 | -46.65619 | 2602 ft | 18 kts | 150° |
| 2026-05-07 14:08 | -23.62965 | -46.65545 | 2602 ft | 18 kts | 148° |
| 2026-05-07 14:08 | -23.63077 | -46.65501 | 2601 ft | 17 kts | 152° |
| 2026-05-07 14:08 | -23.63177 | -46.65437 | 2601 ft | 16 kts | 148° |
| 2026-05-07 14:08 | -23.63272 | -46.65372 | 2601 ft | 16 kts | 147° |
| 2026-05-07 14:09 | -23.63363 | -46.65308 | 2601 ft | 15 kts | 147° |
| 2026-05-07 14:09 | -23.63449 | -46.65249 | 2600 ft | 11 kts | 148° |
| 2026-05-07 14:09 | -23.63474 | -46.65232 | 2600 ft | 0 kts | 147° |
| 2026-05-07 14:12 | -23.63479 | -46.65228 | 2600 ft | 3 kts | 147° |
| 2026-05-07 14:13 | -23.63504 | -46.65175 | 2599 ft | 12 kts | 76° |
| 2026-05-07 14:13 | -23.63446 | -46.65114 | 2599 ft | 6 kts | 36° |
| 2026-05-07 14:13 | -23.63430 | -46.65117 | 2600 ft | 0 kts | 327° |
| 2026-05-07 14:13 | -23.63406 | -46.65134 | 2602 ft | 26 kts | 327° |
| 2026-05-07 14:14 | -23.62998 | -46.65414 | 2609 ft | 111 kts | 328° |
| 2026-05-07 14:14 | -23.62155 | -46.65980 | 2806 ft | 164 kts | 330° |
| 2026-05-07 14:14 | -23.61130 | -46.66668 | 3683 ft | 180 kts | 331° |
| 2026-05-07 14:14 | -23.59929 | -46.67064 | 4455 ft | 192 kts | 6° |
| 2026-05-07 14:15 | -23.58711 | -46.66394 | 4976 ft | 209 kts | 44° |
| 2026-05-07 14:15 | -23.58036 | -46.64954 | 5615 ft | 224 kts | 75° |
| 2026-05-07 14:15 | -23.58185 | -46.63237 | 6441 ft | 239 kts | 106° |
| 2026-05-07 14:15 | -23.58745 | -46.61452 | 6851 ft | 261 kts | 96° |
| 2026-05-07 14:16 | -23.59010 | -46.59419 | 7384 ft | 277 kts | 93° |
| 2026-05-07 14:16 | -23.59301 | -46.57332 | 8291 ft | 280 kts | 95° |
| 2026-05-07 14:16 | -23.59626 | -46.55217 | 9156 ft | 285 kts | 97° |
| 2026-05-07 14:16 | -23.59973 | -46.53083 | 10096 ft | 286 kts | 97° |
| 2026-05-07 14:17 | -23.60333 | -46.50926 | 10802 ft | 294 kts | 97° |
| 2026-05-07 14:17 | -23.60710 | -46.48699 | 11451 ft | 302 kts | 98° |
| 2026-05-07 14:17 | -23.61101 | -46.46425 | 12211 ft | 306 kts | 98° |
| 2026-05-07 14:17 | -23.61497 | -46.44126 | 13034 ft | 307 kts | 98° |
| 2026-05-07 14:18 | -23.61896 | -46.41826 | 13858 ft | 310 kts | 98° |
| 2026-05-07 14:18 | -23.62299 | -46.39498 | 14498 ft | 315 kts | 99° |
| 2026-05-07 14:18 | -23.62707 | -46.37143 | 15210 ft | 319 kts | 99° |
| 2026-05-07 14:18 | -23.63119 | -46.34753 | 15904 ft | 321 kts | 99° |
| 2026-05-07 14:19 | -23.63533 | -46.32358 | 16652 ft | 324 kts | 99° |
| 2026-05-07 14:19 | -23.63952 | -46.29911 | 17219 ft | 331 kts | 99° |
| 2026-05-07 14:19 | -23.64382 | -46.27418 | 17806 ft | 338 kts | 99° |
| 2026-05-07 14:19 | -23.64817 | -46.24893 | 18490 ft | 341 kts | 99° |
| 2026-05-07 14:20 | -23.65258 | -46.22332 | 19025 ft | 347 kts | 100° |
| 2026-05-07 14:20 | -23.65708 | -46.19719 | 19514 ft | 354 kts | 100° |
| 2026-05-07 14:20 | -23.66164 | -46.17062 | 20058 ft | 358 kts | 100° |
| 2026-05-07 14:20 | -23.66610 | -46.14373 | 20629 ft | 364 kts | 97° |
| 2026-05-07 14:21 | -23.66728 | -46.11600 | 21147 ft | 369 kts | 86° |
| 2026-05-07 14:21 | -23.66416 | -46.08802 | 21695 ft | 374 kts | 81° |
| 2026-05-07 14:21 | -23.66001 | -46.05979 | 22188 ft | 380 kts | 80° |
| 2026-05-07 14:21 | -23.65560 | -46.03127 | 22799 ft | 382 kts | 80° |
| 2026-05-07 14:22 | -23.65123 | -46.00287 | 23307 ft | 388 kts | 81° |
| 2026-05-07 14:22 | -23.64682 | -45.97363 | 23802 ft | 392 kts | 81° |
| 2026-05-07 14:22 | -23.64244 | -45.94418 | 24287 ft | 395 kts | 82° |
| 2026-05-07 14:22 | -23.63809 | -45.91448 | 24734 ft | 399 kts | 82° |
| 2026-05-07 14:23 | -23.63373 | -45.88452 | 25191 ft | 402 kts | 82° |
| 2026-05-07 14:23 | -23.62935 | -45.85431 | 25654 ft | 405 kts | 82° |
| 2026-05-07 14:23 | -23.62493 | -45.82387 | 26083 ft | 408 kts | 82° |
| 2026-05-07 14:23 | -23.62047 | -45.79314 | 26492 ft | 413 kts | 83° |
| 2026-05-07 14:24 | -23.61596 | -45.76205 | 26921 ft | 416 kts | 83° |
| 2026-05-07 14:24 | -23.61142 | -45.73090 | 27059 ft | 424 kts | 83° |
| 2026-05-07 14:24 | -23.60671 | -45.69851 | 27074 ft | 435 kts | 83° |
| 2026-05-07 14:24 | -23.60190 | -45.66555 | 27076 ft | 445 kts | 83° |
| 2026-05-07 14:25 | -23.59697 | -45.63182 | 27071 ft | 455 kts | 83° |
| 2026-05-07 14:25 | -23.59192 | -45.59742 | 27071 ft | 462 kts | 83° |
| 2026-05-07 14:25 | -23.58682 | -45.56281 | 27067 ft | 462 kts | 83° |
| 2026-05-07 14:25 | -23.58173 | -45.52825 | 27060 ft | 460 kts | 83° |
| 2026-05-07 14:26 | -23.57666 | -45.49385 | 27056 ft | 459 kts | 83° |
| 2026-05-07 14:26 | -23.57137 | -45.45956 | 27061 ft | 459 kts | 81° |
| 2026-05-07 14:26 | -23.56484 | -45.42552 | 27064 ft | 458 kts | 79° |
| 2026-05-07 14:26 | -23.55760 | -45.39175 | 27069 ft | 458 kts | 78° |
| 2026-05-07 14:27 | -23.55013 | -45.35798 | 27064 ft | 457 kts | 78° |
| 2026-05-07 14:27 | -23.54268 | -45.32431 | 27083 ft | 457 kts | 79° |
| 2026-05-07 14:27 | -23.53532 | -45.29057 | 27058 ft | 458 kts | 79° |
| 2026-05-07 14:27 | -23.52806 | -45.25682 | 27067 ft | 457 kts | 79° |
| 2026-05-07 14:28 | -23.52086 | -45.22311 | 27072 ft | 457 kts | 79° |
| 2026-05-07 14:28 | -23.51370 | -45.18941 | 27073 ft | 457 kts | 79° |
| 2026-05-07 14:28 | -23.50652 | -45.15569 | 27059 ft | 457 kts | 79° |
| 2026-05-07 14:28 | -23.49934 | -45.12196 | 27057 ft | 457 kts | 79° |
| 2026-05-07 14:29 | -23.49217 | -45.08831 | 27054 ft | 453 kts | 79° |
| 2026-05-07 14:29 | -23.48511 | -45.05531 | 26889 ft | 443 kts | 79° |
| 2026-05-07 14:29 | -23.47816 | -45.02284 | 26521 ft | 437 kts | 79° |
| 2026-05-07 14:29 | -23.47130 | -44.99077 | 26065 ft | 433 kts | 78° |
| 2026-05-07 14:30 | -23.46448 | -44.95894 | 25628 ft | 430 kts | 78° |
| 2026-05-07 14:30 | -23.45764 | -44.92739 | 25171 ft | 427 kts | 78° |
| 2026-05-07 14:30 | -23.45070 | -44.89602 | 24691 ft | 425 kts | 78° |
| 2026-05-07 14:30 | -23.44375 | -44.86484 | 24210 ft | 423 kts | 78° |
| 2026-05-07 14:31 | -23.43682 | -44.83379 | 23734 ft | 421 kts | 77° |
| 2026-05-07 14:31 | -23.42992 | -44.80287 | 23181 ft | 419 kts | 77° |
| 2026-05-07 14:31 | -23.42308 | -44.77220 | 22694 ft | 415 kts | 77° |
| 2026-05-07 14:31 | -23.41630 | -44.74179 | 22208 ft | 411 kts | 77° |
| 2026-05-07 14:32 | -23.41185 | -44.72182 | 21893 ft | 409 kts | 77° |
| 2026-05-07 14:32 | -23.40518 | -44.69190 | 21421 ft | 405 kts | 77° |
| 2026-05-07 14:32 | -23.39857 | -44.66228 | 20961 ft | 401 kts | 77° |
| 2026-05-07 14:32 | -23.39201 | -44.63293 | 20510 ft | 397 kts | 77° |
| 2026-05-07 14:33 | -23.38550 | -44.60382 | 20048 ft | 394 kts | 77° |
| 2026-05-07 14:33 | -23.37905 | -44.57496 | 19587 ft | 391 kts | 77° |
| 2026-05-07 14:33 | -23.37265 | -44.54637 | 19129 ft | 388 kts | 77° |
| 2026-05-07 14:33 | -23.36628 | -44.51793 | 18667 ft | 385 kts | 77° |
| 2026-05-07 14:34 | -23.35792 | -44.48068 | 18058 ft | 380 kts | 76° |
| 2026-05-07 14:34 | -23.35369 | -44.46186 | 17727 ft | 378 kts | 76° |
| 2026-05-07 14:34 | -23.34749 | -44.43428 | 17265 ft | 374 kts | 76° |
| 2026-05-07 14:34 | -23.34002 | -44.40736 | 16819 ft | 370 kts | 69° |
| 2026-05-07 14:35 | -23.32970 | -44.38192 | 16380 ft | 366 kts | 65° |
| 2026-05-07 14:35 | -23.31854 | -44.35720 | 15955 ft | 362 kts | 64° |
| 2026-05-07 14:35 | -23.30738 | -44.33279 | 15534 ft | 358 kts | 64° |
| 2026-05-07 14:35 | -23.29647 | -44.30856 | 15108 ft | 355 kts | 64° |
| 2026-05-07 14:36 | -23.28579 | -44.28442 | 14697 ft | 352 kts | 65° |
| 2026-05-07 14:36 | -23.27546 | -44.26076 | 14274 ft | 350 kts | 65° |
| 2026-05-07 14:36 | -23.26512 | -44.23687 | 13850 ft | 348 kts | 65° |
| 2026-05-07 14:36 | -23.25472 | -44.21276 | 13376 ft | 346 kts | 65° |
| 2026-05-07 14:37 | -23.24456 | -44.18917 | 12943 ft | 343 kts | 64° |
| 2026-05-07 14:37 | -23.23363 | -44.14030 | 12412 ft | 333 kts | 86° |
| 2026-05-07 14:37 | -23.23282 | -44.11526 | 12167 ft | 330 kts | 86° |
| 2026-05-07 14:38 | -23.23224 | -44.09038 | 11927 ft | 328 kts | 87° |
| 2026-05-07 14:38 | -23.23168 | -44.06563 | 11685 ft | 327 kts | 86° |
| 2026-05-07 14:38 | -23.23109 | -44.04095 | 11446 ft | 326 kts | 86° |
| 2026-05-07 14:38 | -23.23046 | -44.01634 | 11205 ft | 326 kts | 85° |
| 2026-05-07 14:39 | -23.22979 | -43.99174 | 10971 ft | 325 kts | 85° |
| 2026-05-07 14:39 | -23.22909 | -43.96721 | 10737 ft | 324 kts | 86° |
| 2026-05-07 14:39 | -23.22837 | -43.94271 | 10510 ft | 324 kts | 85° |
| 2026-05-07 14:39 | -23.22763 | -43.91822 | 10276 ft | 324 kts | 85° |
| 2026-05-07 14:40 | -23.22689 | -43.89376 | 10051 ft | 324 kts | 85° |
| 2026-05-07 14:40 | -23.22615 | -43.86942 | 9800 ft | 318 kts | 85° |
| 2026-05-07 14:40 | -23.22545 | -43.84591 | 9524 ft | 304 kts | 85° |
| 2026-05-07 14:40 | -23.22477 | -43.82341 | 9260 ft | 293 kts | 85° |
| 2026-05-07 14:41 | -23.22409 | -43.80147 | 9009 ft | 288 kts | 85° |
| 2026-05-07 14:41 | -23.22341 | -43.77986 | 8761 ft | 284 kts | 85° |
| 2026-05-07 14:41 | -23.22274 | -43.75852 | 8514 ft | 281 kts | 85° |
| 2026-05-07 14:41 | -23.22206 | -43.73745 | 8271 ft | 277 kts | 85° |
| 2026-05-07 14:42 | -23.22140 | -43.71658 | 8024 ft | 275 kts | 84° |
| 2026-05-07 14:42 | -23.22074 | -43.69595 | 7775 ft | 272 kts | 85° |
| 2026-05-07 14:42 | -23.22007 | -43.67542 | 7545 ft | 271 kts | 85° |
| 2026-05-07 14:42 | -23.21941 | -43.65500 | 7310 ft | 270 kts | 85° |
| 2026-05-07 14:43 | -23.21874 | -43.63454 | 7098 ft | 281 kts | 85° |
| 2026-05-07 14:43 | -23.21801 | -43.61294 | 6872 ft | 289 kts | 85° |
| 2026-05-07 14:43 | -23.21730 | -43.59107 | 6641 ft | 289 kts | 85° |
| 2026-05-07 14:43 | -23.21660 | -43.56940 | 6398 ft | 285 kts | 85° |
| 2026-05-07 14:44 | -23.21591 | -43.54807 | 6145 ft | 280 kts | 85° |
| 2026-05-07 14:44 | -23.21523 | -43.52705 | 5895 ft | 277 kts | 85° |
| 2026-05-07 14:44 | -23.21455 | -43.50628 | 5650 ft | 273 kts | 85° |
| 2026-05-07 14:44 | -23.21387 | -43.48574 | 5400 ft | 270 kts | 85° |
| 2026-05-07 14:45 | -23.21320 | -43.46545 | 5160 ft | 267 kts | 85° |
| 2026-05-07 14:45 | -23.21252 | -43.44534 | 4918 ft | 265 kts | 85° |
| 2026-05-07 14:45 | -23.21186 | -43.42546 | 4677 ft | 262 kts | 85° |
| 2026-05-07 14:45 | -23.21119 | -43.40575 | 4418 ft | 260 kts | 85° |
| 2026-05-07 14:46 | -23.21053 | -43.38628 | 4178 ft | 257 kts | 85° |
| 2026-05-07 14:46 | -23.20987 | -43.36685 | 4068 ft | 257 kts | 85° |
| 2026-05-07 14:46 | -23.20920 | -43.34729 | 4037 ft | 260 kts | 85° |
| 2026-05-07 14:46 | -23.20853 | -43.32769 | 4023 ft | 258 kts | 85° |
| 2026-05-07 14:47 | -23.20786 | -43.30829 | 4016 ft | 256 kts | 85° |
| 2026-05-07 14:47 | -23.20720 | -43.28898 | 4016 ft | 256 kts | 85° |
| 2026-05-07 14:47 | -23.20653 | -43.26965 | 4019 ft | 256 kts | 85° |
| 2026-05-07 14:47 | -23.20586 | -43.25024 | 4020 ft | 257 kts | 85° |
| 2026-05-07 14:48 | -23.20519 | -43.23102 | 4024 ft | 249 kts | 85° |
| 2026-05-07 14:48 | -23.20458 | -43.21291 | 4013 ft | 231 kts | 85° |
| 2026-05-07 14:48 | -23.20401 | -43.19618 | 3990 ft | 213 kts | 84° |
| 2026-05-07 14:48 | -23.20348 | -43.18070 | 3989 ft | 199 kts | 84° |
| 2026-05-07 14:49 | -23.20293 | -43.16575 | 4012 ft | 198 kts | 83° |
| 2026-05-07 14:49 | -23.19873 | -43.15199 | 3999 ft | 192 kts | 46° |
| 2026-05-07 14:49 | -23.18759 | -43.14434 | 3886 ft | 193 kts | 18° |
| 2026-05-07 14:49 | -23.17479 | -43.13972 | 3725 ft | 195 kts | 18° |
| 2026-05-07 14:50 | -23.16198 | -43.13509 | 3572 ft | 193 kts | 18° |
| 2026-05-07 14:50 | -23.14948 | -43.13058 | 3428 ft | 185 kts | 18° |
| 2026-05-07 14:50 | -23.13759 | -43.12629 | 3281 ft | 175 kts | 17° |
| 2026-05-07 14:50 | -23.12627 | -43.12221 | 3126 ft | 167 kts | 18° |
| 2026-05-07 14:51 | -23.11535 | -43.11828 | 3012 ft | 164 kts | 17° |
| 2026-05-07 14:51 | -23.10446 | -43.11435 | 2905 ft | 166 kts | 17° |
| 2026-05-07 14:51 | -23.09335 | -43.11070 | 2777 ft | 167 kts | 7° |
| 2026-05-07 14:51 | -23.08187 | -43.11213 | 2660 ft | 167 kts | 350° |
| 2026-05-07 14:52 | -23.07034 | -43.11409 | 2536 ft | 168 kts | 352° |
| 2026-05-07 14:52 | -23.05887 | -43.11591 | 2401 ft | 165 kts | 352° |
| 2026-05-07 14:52 | -23.04745 | -43.11772 | 2259 ft | 165 kts | 352° |
| 2026-05-07 14:52 | -23.03610 | -43.11954 | 2162 ft | 167 kts | 352° |
| 2026-05-07 14:53 | -23.02452 | -43.12139 | 2020 ft | 169 kts | 352° |
| 2026-05-07 14:53 | -23.01301 | -43.12323 | 1886 ft | 164 kts | 352° |
| 2026-05-07 14:53 | -23.00223 | -43.12496 | 1767 ft | 149 kts | 353° |
| 2026-05-07 14:53 | -22.99251 | -43.12653 | 1667 ft | 138 kts | 353° |
| 2026-05-07 14:54 | -22.98289 | -43.12806 | 1460 ft | 137 kts | 353° |
| 2026-05-07 14:54 | -22.97349 | -43.12957 | 1293 ft | 135 kts | 353° |
| 2026-05-07 14:54 | -22.96427 | -43.13104 | 1141 ft | 135 kts | 354° |
| 2026-05-07 14:54 | -22.95527 | -43.13413 | 978 ft | 142 kts | 330° |
| 2026-05-07 14:55 | -22.94902 | -43.14266 | 798 ft | 145 kts | 301° |
| 2026-05-07 14:55 | -22.94357 | -43.15169 | 661 ft | 143 kts | 306° |
| 2026-05-07 14:55 | -22.93783 | -43.16035 | 457 ft | 137 kts | 321° |
| 2026-05-07 14:55 | -22.92932 | -43.16342 | 332 ft | 134 kts | 5° |
| 2026-05-07 14:56 | -22.91960 | -43.16251 | 481 ft | 149 kts | 0° |
| 2026-05-07 14:56 | -22.90872 | -43.16299 | 1320 ft | 161 kts | 358° |
| 2026-05-07 14:56 | -22.89618 | -43.16308 | 1886 ft | 208 kts | 7° |
| 2026-05-07 14:56 | -22.88270 | -43.15908 | 1971 ft | 202 kts | 26° |
| 2026-05-07 14:57 | -22.87178 | -43.14969 | 1998 ft | 198 kts | 50° |
| 2026-05-07 14:57 | -22.86494 | -43.13644 | 2001 ft | 211 kts | 69° |
| 2026-05-07 14:57 | -22.86199 | -43.12064 | 2036 ft | 215 kts | 82° |
| 2026-05-07 14:57 | -22.86341 | -43.10456 | 2041 ft | 217 kts | 112° |
| 2026-05-07 14:58 | -22.87176 | -43.09103 | 2332 ft | 221 kts | 127° |
| 2026-05-07 14:58 | -22.88126 | -43.07637 | 2593 ft | 255 kts | 122° |
| 2026-05-07 14:58 | -22.89144 | -43.05961 | 3305 ft | 273 kts | 121° |
| 2026-05-07 14:58 | -22.90187 | -43.04232 | 4324 ft | 274 kts | 121° |
| 2026-05-07 14:59 | -22.91228 | -43.02488 | 5151 ft | 277 kts | 121° |
| 2026-05-07 14:59 | -22.92236 | -43.00789 | 5414 ft | 258 kts | 121° |
| 2026-05-07 14:59 | -22.93180 | -42.99187 | 5478 ft | 248 kts | 121° |
| 2026-05-07 14:59 | -22.94090 | -42.97644 | 5507 ft | 240 kts | 120° |
| 2026-05-07 15:00 | -22.94982 | -42.96119 | 5518 ft | 239 kts | 120° |
| 2026-05-07 15:00 | -22.95873 | -42.94592 | 5512 ft | 240 kts | 120° |
| 2026-05-07 15:00 | -22.96764 | -42.93065 | 5533 ft | 240 kts | 120° |
| 2026-05-07 15:00 | -22.97823 | -42.91664 | 5491 ft | 247 kts | 146° |
| 2026-05-07 15:01 | -22.99444 | -42.91163 | 5464 ft | 247 kts | 184° |
| 2026-05-07 15:01 | -23.01041 | -42.91779 | 5322 ft | 245 kts | 217° |
| 2026-05-07 15:01 | -23.02176 | -42.93113 | 5130 ft | 240 kts | 242° |
| 2026-05-07 15:01 | -23.02898 | -42.94726 | 4917 ft | 237 kts | 249° |
| 2026-05-07 15:02 | -23.03536 | -42.96372 | 4686 ft | 236 kts | 249° |
| 2026-05-07 15:02 | -23.04168 | -42.98022 | 4452 ft | 240 kts | 249° |
| 2026-05-07 15:02 | -23.04821 | -42.99706 | 4322 ft | 242 kts | 249° |
| 2026-05-07 15:02 | -23.05351 | -43.01426 | 3933 ft | 249 kts | 269° |
| 2026-05-07 15:03 | -23.04956 | -43.03205 | 3665 ft | 242 kts | 298° |
| 2026-05-07 15:03 | -23.04240 | -43.04841 | 3356 ft | 237 kts | 296° |
| 2026-05-07 15:03 | -23.03594 | -43.06450 | 3107 ft | 229 kts | 295° |
| 2026-05-07 15:03 | -23.02996 | -43.08019 | 2848 ft | 220 kts | 295° |
| 2026-05-07 15:04 | -23.02432 | -43.09532 | 2597 ft | 212 kts | 294° |
| 2026-05-07 15:04 | -23.01897 | -43.10981 | 2356 ft | 201 kts | 295° |
| 2026-05-07 15:04 | -23.01132 | -43.12141 | 2111 ft | 181 kts | 328° |
| 2026-05-07 15:04 | -23.00064 | -43.12670 | 1885 ft | 160 kts | 348° |
| 2026-05-07 15:05 | -22.99027 | -43.12859 | 1689 ft | 141 kts | 352° |
| 2026-05-07 15:05 | -22.98082 | -43.13034 | 1489 ft | 135 kts | 352° |
| 2026-05-07 15:05 | -22.97164 | -43.13204 | 1301 ft | 133 kts | 353° |
| 2026-05-07 15:05 | -22.96255 | -43.13372 | 1145 ft | 134 kts | 352° |
| 2026-05-07 15:06 | -22.95323 | -43.13571 | 973 ft | 139 kts | 344° |
| 2026-05-07 15:06 | -22.94655 | -43.14297 | 873 ft | 136 kts | 296° |
| 2026-05-07 15:06 | -22.94311 | -43.15256 | 785 ft | 134 kts | 293° |
| 2026-05-07 15:06 | -22.93820 | -43.16095 | 462 ft | 135 kts | 327° |
| 2026-05-07 15:07 | -22.92948 | -43.16341 | 288 ft | 133 kts | 6° |
| 2026-05-07 15:07 | -22.92037 | -43.16244 | 138 ft | 132 kts | 2° |
| 2026-05-07 15:07 | -22.91164 | -43.16276 | 20 ft | 115 kts | 356° |
| 2026-05-07 15:07 | -22.90587 | -43.16312 | 23 ft | 43 kts | 356° |
| 2026-05-07 15:08 | -22.90494 | -43.16390 | 23 ft | 14 kts | 268° |
| 2026-05-07 15:08 | -22.90498 | -43.16496 | 21 ft | 12 kts | 268° |
| 2026-05-07 15:08 | -22.90547 | -43.16556 | 21 ft | 14 kts | 181° |
| 2026-05-07 15:08 | -22.90650 | -43.16550 | 23 ft | 16 kts | 175° |
| 2026-05-07 15:09 | -22.90707 | -43.16563 | 21 ft | 6 kts | 257° |